Time;durP1;ratioP1;P1;durP2;ratioP2;P2;SDS_P1;SDS_P2;PMS_P1;PMS_P2;Temp;Humidity;BMP_temperature;BMP_pressure;BME280_temperature;BME280_humidity;BME280_pressure;Samples;Min_cycle;Max_cycle;Signal;HPM_P1;HPM_P2
2022/12/23 00:03:38;;;;;;;;;;;;;;;8.40;94.63;100351.69;20641640;28;19934;-62
2022/12/23 00:24:42;;;;;;;;;;;;;;;8.36;95.42;100352.66;20642538;28;19988;-62
2022/12/23 00:35:03;;;;;;;;;;;;;;;8.33;95.09;100363.91;20636510;28;19933;-61
2022/12/23 00:45:25;;;;;;;;;;;;;;;8.38;95.54;100356.88;20645600;28;19930;-61
2022/12/23 00:55:47;;;;;;;;;;;;;;;8.41;95.75;100363.66;20612878;28;19926;-61
2022/12/23 01:06:09;;;;;;;;;;;;;;;8.42;95.69;100367.94;20632639;28;19956;-62
2022/12/23 01:16:30;;;;;;;;;;;;;;;8.40;95.47;100364.56;20622264;28;19926;-61
2022/12/23 01:26:51;;;;;;;;;;;;;;;8.41;95.53;100361.94;20640541;28;19968;-61
2022/12/23 01:37:13;;;;;;;;;;;;;;;8.40;95.77;100380.88;20619775;28;19961;-61
2022/12/23 01:47:37;;;;;;;;;;;;;;;8.39;96.02;100386.91;20632594;28;19968;-61
2022/12/23 01:58:06;;;;;;;;;;;;;;;8.40;95.81;100390.34;20644092;28;19965;-61
2022/12/23 02:19:30;;;;;;;;;;;;;;;8.49;95.17;100427.03;20636387;28;20034;-62
2022/12/23 02:30:06;;;;;;;;;;;;;;;8.47;95.04;100423.66;20634714;28;20487;-62
2022/12/23 02:40:28;;;;;;;;;;;;;;;8.48;95.09;100420.16;20632162;28;19992;-61
2022/12/23 02:50:51;;;;;;;;;;;;;;;8.48;95.03;100427.91;20642305;28;20351;-61
2022/12/23 03:01:14;;;;;;;;;;;;;;;8.46;95.31;100447.72;20684950;23;20065;-73
2022/12/23 03:11:43;;;;;;;;;;;;;;;8.47;94.80;100453.72;20685482;28;19935;-73
2022/12/23 03:22:24;;;;;;;;;;;;;;;8.47;95.01;100470.06;20665398;28;20005;-73
2022/12/23 03:32:48;;;;;;;;;;;;;;;8.46;94.75;100483.00;20699386;28;19996;-74
2022/12/23 03:43:12;;;;;;;;;;;;;;;8.40;94.97;100478.84;20670154;28;19926;-75
2022/12/23 03:53:37;;;;;;;;;;;;;;;8.40;95.10;100478.84;20678044;28;19984;-73
2022/12/23 04:04:07;;;;;;;;;;;;;;;8.35;95.24;100498.72;20675824;28;19932;-74
2022/12/23 04:14:30;;;;;;;;;;;;;;;8.36;94.75;100526.22;20676967;28;19936;-74
2022/12/23 04:24:51;;;;;;;;;;;;;;;8.23;95.51;100532.53;20673290;28;19925;-75
2022/12/23 04:35:13;;;;;;;;;;;;;;;8.21;95.54;100533.44;20666107;28;19930;-74
2022/12/23 04:45:34;;;;;;;;;;;;;;;8.17;95.42;100545.56;20682090;28;20033;-73
2022/12/23 04:55:56;;;;;;;;;;;;;;;8.16;95.61;100551.59;20681276;28;20137;-73
2022/12/23 05:06:17;;;;;;;;;;;;;;;8.16;95.15;100556.75;20675231;28;19925;-74
2022/12/23 05:16:38;;;;;;;;;;;;;;;8.19;94.82;100556.69;20683714;28;19976;-74
2022/12/23 05:27:00;;;;;;;;;;;;;;;8.14;95.56;100555.94;20676659;28;19952;-73
2022/12/23 05:37:21;;;;;;;;;;;;;;;8.10;95.24;100551.75;20685586;28;20401;-72
2022/12/23 05:47:43;;;;;;;;;;;;;;;8.01;95.49;100551.97;20692525;28;19925;-73
2022/12/23 05:58:04;;;;;;;;;;;;;;;8.01;95.18;100551.97;20688452;28;19996;-74
2022/12/23 06:08:26;;;;;;;;;;;;;;;7.93;96.04;100574.47;20681187;28;20349;-75
2022/12/23 06:18:47;;;;;;;;;;;;;;;7.94;96.31;100596.81;20682480;28;20337;-75
2022/12/23 06:29:09;;;;;;;;;;;;;;;7.88;97.06;100592.63;20678348;28;19985;-74
2022/12/23 06:39:30;;;;;;;;;;;;;;;7.87;96.90;100631.31;20676578;28;20349;-74
2022/12/23 06:49:52;;;;;;;;;;;;;;;7.85;96.84;100628.78;20682744;28;19926;-74
2022/12/23 07:00:14;;;;;;;;;;;;;;;7.74;96.62;100617.88;20685226;28;19925;-74
2022/12/23 07:10:35;;;;;;;;;;;;;;;7.72;97.62;100635.06;20672783;28;19933;-75
2022/12/23 07:20:58;;;;;;;;;;;;;;;7.76;97.55;100643.56;20670654;28;19958;-75
2022/12/23 07:31:20;;;;;;;;;;;;;;;7.82;97.37;100658.91;20679305;28;19979;-75
2022/12/23 07:41:41;;;;;;;;;;;;;;;7.78;96.91;100677.88;20677845;28;20024;-75
2022/12/23 07:52:03;;;;;;;;;;;;;;;7.69;96.97;100703.81;20668277;28;20316;-75
2022/12/23 08:02:24;;;;;;;;;;;;;;;7.65;97.05;100707.34;20654584;28;20536;-75
2022/12/23 08:12:46;;;;;;;;;;;;;;;7.72;97.89;100732.06;20652405;28;20024;-75
2022/12/23 08:23:07;;;;;;;;;;;;;;;7.77;97.43;100741.41;20651295;28;19929;-75
2022/12/23 08:33:29;;;;;;;;;;;;;;;7.82;97.11;100736.19;20658471;28;19925;-74
2022/12/23 08:43:50;;;;;;;;;;;;;;;7.87;96.98;100729.19;20636497;28;19930;-76
2022/12/23 08:54:12;;;;;;;;;;;;;;;7.91;96.80;100725.69;20682523;28;19926;-77
2022/12/23 09:04:34;;;;;;;;;;;;;;;7.90;96.79;100703.38;20656106;23;19929;-68
2022/12/23 09:14:56;;;;;;;;;;;;;;;8.04;96.91;100697.03;20629493;28;19930;-67
2022/12/23 09:25:17;;;;;;;;;;;;;;;8.10;95.86;100711.50;20627726;28;20520;-66
2022/12/23 09:35:39;;;;;;;;;;;;;;;8.21;96.15;100725.00;20616190;28;19980;-65
2022/12/23 09:46:19;;;;;;;;;;;;;;;8.21;95.93;100706.13;20626888;28;20389;-65
2022/12/23 09:56:40;;;;;;;;;;;;;;;8.19;96.04;100719.03;20620235;28;20007;-66
2022/12/23 10:07:05;;;;;;;;;;;;;;;8.15;96.22;100712.25;20631034;28;20362;-66
2022/12/23 10:17:33;;;;;;;;;;;;;;;8.17;96.21;100702.75;20646680;28;19929;-65
2022/12/23 10:27:55;;;;;;;;;;;;;;;8.20;96.68;100689.81;20637096;28;19926;-66
2022/12/23 10:38:22;;;;;;;;;;;;;;;8.26;96.82;100681.97;20623890;28;19925;-65
2022/12/23 10:49:07;;;;;;;;;;;;;;;8.37;96.50;100677.41;20638123;28;19934;-65
2022/12/23 10:59:34;;;;;;;;;;;;;;;8.54;96.58;100656.38;20632371;28;19926;-61
2022/12/23 11:10:00;;;;;;;;;;;;;;;8.67;96.48;100642.28;20637848;28;20053;-62
2022/12/23 11:20:21;;;;;;;;;;;;;;;8.74;96.18;100623.19;20621805;28;20443;-64
2022/12/23 11:30:47;;;;;;;;;;;;;;;8.78;95.77;100628.25;20617491;28;19949;-63
2022/12/23 11:41:21;;;;;;;;;;;;;;;8.81;95.46;100617.84;20631299;28;20567;-63
2022/12/23 11:51:43;;;;;;;;;;;;;;;8.82;95.22;100626.44;20625187;28;19930;-63
2022/12/23 12:02:13;;;;;;;;;;;;;;;8.84;94.90;100615.19;20632062;28;19938;-63
2022/12/23 12:12:35;;;;;;;;;;;;;;;8.87;95.16;100609.94;20630315;28;19933;-63
2022/12/23 12:23:07;;;;;;;;;;;;;;;8.84;94.66;100599.72;20628748;28;19932;-62
2022/12/23 12:33:33;;;;;;;;;;;;;;;8.96;95.23;100555.50;20617431;28;19953;-63
2022/12/23 12:43:59;;;;;;;;;;;;;;;8.97;94.24;100552.03;20624588;28;19934;-63
2022/12/23 12:54:38;;;;;;;;;;;;;;;9.00;94.72;100535.63;20634753;28;19984;-62
2022/12/23 13:05:06;;;;;;;;;;;;;;;9.11;95.40;100536.16;20630431;28;19945;-63
2022/12/23 13:15:36;;;;;;;;;;;;;;;9.18;95.24;100522.19;20624892;28;19933;-63
2022/12/23 13:26:03;;;;;;;;;;;;;;;9.18;95.50;100509.28;20614358;28;19934;-63
2022/12/23 13:36:25;;;;;;;;;;;;;;;9.12;95.61;100507.72;20629974;28;20017;-62
2022/12/23 13:46:59;;;;;;;;;;;;;;;9.14;95.83;100510.25;20633112;28;19991;-61
2022/12/23 13:57:35;;;;;;;;;;;;;;;9.20;95.97;100509.22;20661625;28;19940;-61
2022/12/23 14:08:02;;;;;;;;;;;;;;;9.17;95.51;100496.41;20640535;28;20009;-62
2022/12/23 14:18:39;;;;;;;;;;;;;;;9.13;95.46;100495.66;20650136;28;19926;-61
2022/12/23 14:29:20;;;;;;;;;;;;;;;9.14;95.75;100474.97;20639023;28;20416;-61
2022/12/23 14:39:42;;;;;;;;;;;;;;;9.13;95.61;100460.38;20634196;28;19988;-61
2022/12/23 14:50:22;;;;;;;;;;;;;;;9.09;95.01;100460.50;20628234;28;20472;-61
2022/12/23 15:00:55;;;;;;;;;;;;;;;9.02;95.27;100444.38;20628931;28;20495;-61
2022/12/23 15:11:21;;;;;;;;;;;;;;;8.94;95.17;100438.59;20725560;22;19933;-72
2022/12/23 15:21:43;;;;;;;;;;;;;;;8.90;95.22;100433.59;20711145;28;20495;-71
2022/12/23 15:32:10;;;;;;;;;;;;;;;8.84;95.42;100426.00;20709941;28;19929;-72
2022/12/23 15:42:34;;;;;;;;;;;;;;;8.78;95.53;100423.59;20712217;28;20610;-73
2022/12/23 15:53:00;;;;;;;;;;;;;;;8.73;95.67;100423.75;20706324;28;19933;-71
2022/12/23 16:03:32;;;;;;;;;;;;;;;8.66;95.64;100413.66;20660862;28;20106;-70
2022/12/23 16:13:59;;;;;;;;;;;;;;;8.61;96.08;100418.94;20712037;28;20537;-71
2022/12/23 16:24:20;;;;;;;;;;;;;;;8.62;96.31;100412.06;20712668;28;20321;-73
2022/12/23 16:34:44;;;;;;;;;;;;;;;8.58;96.79;100398.41;20709240;28;19941;-75
2022/12/23 16:45:05;;;;;;;;;;;;;;;8.48;96.99;100378.91;20702165;28;19937;-73
2022/12/23 16:55:27;;;;;;;;;;;;;;;8.44;97.27;100377.31;20707486;28;19925;-74
2022/12/23 17:05:48;;;;;;;;;;;;;;;8.44;97.36;100367.00;20708180;28;20334;-74
2022/12/23 17:16:20;;;;;;;;;;;;;;;8.49;97.37;100362.56;20711780;28;19929;-74
2022/12/23 17:26:42;;;;;;;;;;;;;;;8.47;97.15;100354.03;20705191;28;20510;-74
2022/12/23 17:37:11;;;;;;;;;;;;;;;8.45;97.27;100358.38;20695247;28;19930;-72
2022/12/23 17:47:32;;;;;;;;;;;;;;;8.45;97.26;100358.38;20704428;28;19933;-73
2022/12/23 17:57:54;;;;;;;;;;;;;;;8.44;97.34;100363.59;20691140;28;20446;-75
2022/12/23 18:08:15;;;;;;;;;;;;;;;8.37;96.90;100365.50;20703089;28;19999;-72
2022/12/23 18:18:37;;;;;;;;;;;;;;;8.31;96.95;100370.84;20693114;28;19964;-78
2022/12/23 18:29:07;;;;;;;;;;;;;;;8.29;96.99;100367.44;20708090;28;20039;-80
2022/12/23 18:39:28;;;;;;;;;;;;;;;8.26;96.81;100372.69;20703618;28;19940;-77
2022/12/23 18:49:49;;;;;;;;;;;;;;;8.20;96.74;100367.69;20703581;28;19926;-77
2022/12/23 19:00:21;;;;;;;;;;;;;;;8.16;96.97;100360.91;20707737;28;19988;-76
2022/12/23 19:10:44;;;;;;;;;;;;;;;8.14;97.01;100368.69;20708909;28;19979;-79
2022/12/23 19:21:06;;;;;;;;;;;;;;;8.14;96.86;100367.84;20702412;28;20011;-76
2022/12/23 19:31:28;;;;;;;;;;;;;;;8.11;96.66;100363.59;20690244;28;20459;-75
2022/12/23 19:41:50;;;;;;;;;;;;;;;8.15;97.07;100374.66;20696042;28;19933;-75
2022/12/23 19:52:11;;;;;;;;;;;;;;;8.08;96.86;100378.31;20688194;28;20013;-74
2022/12/23 20:02:33;;;;;;;;;;;;;;;8.07;96.85;100382.63;20701662;28;21215;-74
2022/12/23 20:12:54;;;;;;;;;;;;;;;8.05;96.84;100399.00;20697842;28;20108;-77
2022/12/23 20:23:15;;;;;;;;;;;;;;;8.01;96.24;100395.69;20709193;28;19960;-75
2022/12/23 20:33:37;;;;;;;;;;;;;;;8.02;96.66;100401.69;20707076;28;20195;-77
2022/12/23 20:43:59;;;;;;;;;;;;;;;8.03;96.77;100395.63;20700831;28;19929;-75
2022/12/23 20:54:40;;;;;;;;;;;;;;;8.02;96.73;100404.25;20689286;28;19930;-78
2022/12/23 21:05:02;;;;;;;;;;;;;;;7.99;96.63;100414.63;20680159;28;19972;-76
2022/12/23 21:15:23;;;;;;;;;;;;;;;7.96;96.38;100404.41;20699332;28;19941;-77
2022/12/23 21:25:44;;;;;;;;;;;;;;;7.94;96.70;100412.19;20679732;23;20428;-75
2022/12/23 21:36:06;;;;;;;;;;;;;;;7.94;97.03;100432.78;20631350;28;19960;-76
2022/12/23 21:46:28;;;;;;;;;;;;;;;7.94;96.47;100432.78;20627091;28;20055;-73
2022/12/23 21:56:50;;;;;;;;;;;;;;;7.90;96.67;100431.16;20633106;28;20440;-75
2022/12/23 22:07:11;;;;;;;;;;;;;;;7.83;96.49;100433.94;20618428;28;19962;-77
2022/12/23 22:17:33;;;;;;;;;;;;;;;7.83;96.88;100437.38;20630106;28;20321;-76
2022/12/23 22:27:56;;;;;;;;;;;;;;;7.84;96.77;100441.63;20643102;28;21241;-74
2022/12/23 22:38:17;;;;;;;;;;;;;;;7.82;96.53;100442.56;20635519;28;19968;-75
2022/12/23 22:48:39;;;;;;;;;;;;;;;7.77;96.81;100431.50;20638014;28;19984;-78
2022/12/23 22:59:00;;;;;;;;;;;;;;;7.74;96.67;100431.59;20640656;28;19971;-74
2022/12/23 23:09:21;;;;;;;;;;;;;;;7.71;96.94;100440.22;20613478;28;19933;-75
2022/12/23 23:19:43;;;;;;;;;;;;;;;7.71;97.28;100454.84;20623943;28;19981;-74
2022/12/23 23:30:05;;;;;;;;;;;;;;;7.74;97.03;100450.47;20626785;28;19988;-74
2022/12/23 23:40:26;;;;;;;;;;;;;;;7.75;97.79;100433.28;20627476;28;20012;-74
2022/12/23 23:50:48;;;;;;;;;;;;;;;7.70;97.17;100446.28;20618379;28;20690;-75
